sensor_id;sensor_type;location;lat;lon;timestamp;P1;durP1;ratioP1;P2;durP2;ratioP2
2610;SDS011;5612;51.134;17.058;2022-11-04T00:00:17;24.97;;;22.17;;
2610;SDS011;5612;51.134;17.058;2022-11-04T00:02:52;28.13;;;21.90;;
2610;SDS011;5612;51.134;17.058;2022-11-04T00:05:21;27.83;;;21.30;;
2610;SDS011;5612;51.134;17.058;2022-11-04T00:07:49;24.93;;;21.23;;
2610;SDS011;5612;51.134;17.058;2022-11-04T00:10:45;27.27;;;19.80;;
2610;SDS011;5612;51.134;17.058;2022-11-04T00:13:31;22.60;;;18.83;;
2610;SDS011;5612;51.134;17.058;2022-11-04T00:16:00;27.77;;;24.87;;
2610;SDS011;5612;51.134;17.058;2022-11-04T00:18:46;24.30;;;18.93;;
2610;SDS011;5612;51.134;17.058;2022-11-04T00:21:14;26.30;;;20.10;;
2610;SDS011;5612;51.134;17.058;2022-11-04T00:24:01;24.73;;;19.87;;
2610;SDS011;5612;51.134;17.058;2022-11-04T00:26:48;23.27;;;20.10;;
2610;SDS011;5612;51.134;17.058;2022-11-04T00:29:34;26.17;;;18.93;;
2610;SDS011;5612;51.134;17.058;2022-11-04T00:32:03;23.30;;;18.57;;
2610;SDS011;5612;51.134;17.058;2022-11-04T00:34:49;27.43;;;19.50;;
2610;SDS011;5612;51.134;17.058;2022-11-04T00:37:18;23.23;;;19.30;;
2610;SDS011;5612;51.134;17.058;2022-11-04T00:39:47;26.67;;;19.47;;
2610;SDS011;5612;51.134;17.058;2022-11-04T00:42:17;22.50;;;18.93;;
2610;SDS011;5612;51.134;17.058;2022-11-04T00:44:45;22.60;;;19.40;;
2610;SDS011;5612;51.134;17.058;2022-11-04T00:47:14;20.77;;;18.60;;
2610;SDS011;5612;51.134;17.058;2022-11-04T00:49:43;26.50;;;19.80;;
2610;SDS011;5612;51.134;17.058;2022-11-04T00:52:11;24.63;;;20.77;;
2610;SDS011;5612;51.134;17.058;2022-11-04T00:54:40;21.70;;;19.33;;
2610;SDS011;5612;51.134;17.058;2022-11-04T00:57:09;21.90;;;18.10;;
2610;SDS011;5612;51.134;17.058;2022-11-04T00:59:39;22.50;;;18.80;;
2610;SDS011;5612;51.134;17.058;2022-11-04T01:02:08;20.13;;;17.10;;
2610;SDS011;5612;51.134;17.058;2022-11-04T01:04:37;20.80;;;18.10;;
2610;SDS011;5612;51.134;17.058;2022-11-04T01:07:06;21.47;;;19.17;;
2610;SDS011;5612;51.134;17.058;2022-11-04T01:09:35;22.80;;;20.27;;
2610;SDS011;5612;51.134;17.058;2022-11-04T01:12:03;27.27;;;24.43;;
2610;SDS011;5612;51.134;17.058;2022-11-04T01:14:32;31.30;;;27.27;;
2610;SDS011;5612;51.134;17.058;2022-11-04T01:17:02;30.07;;;26.40;;
2610;SDS011;5612;51.134;17.058;2022-11-04T01:19:31;30.53;;;27.37;;
2610;SDS011;5612;51.134;17.058;2022-11-04T01:22:00;29.83;;;25.10;;
2610;SDS011;5612;51.134;17.058;2022-11-04T01:24:28;27.53;;;23.30;;
2610;SDS011;5612;51.134;17.058;2022-11-04T01:26:57;23.50;;;20.10;;
2610;SDS011;5612;51.134;17.058;2022-11-04T01:29:26;22.90;;;19.03;;
2610;SDS011;5612;51.134;17.058;2022-11-04T01:31:54;19.93;;;17.40;;
2610;SDS011;5612;51.134;17.058;2022-11-04T01:34:24;20.33;;;17.57;;
2610;SDS011;5612;51.134;17.058;2022-11-04T01:36:53;19.97;;;16.90;;
2610;SDS011;5612;51.134;17.058;2022-11-04T01:39:23;18.83;;;16.90;;
2610;SDS011;5612;51.134;17.058;2022-11-04T01:41:51;18.70;;;16.70;;
2610;SDS011;5612;51.134;17.058;2022-11-04T01:47:19;21.00;;;17.63;;
2610;SDS011;5612;51.134;17.058;2022-11-04T01:49:54;22.80;;;16.80;;
2610;SDS011;5612;51.134;17.058;2022-11-04T01:52:28;19.50;;;17.30;;
2610;SDS011;5612;51.134;17.058;2022-11-04T01:55:02;25.50;;;19.27;;
2610;SDS011;5612;51.134;17.058;2022-11-04T01:57:37;21.73;;;18.87;;
2610;SDS011;5612;51.134;17.058;2022-11-04T02:00:10;20.80;;;18.60;;
2610;SDS011;5612;51.134;17.058;2022-11-04T02:02:43;20.77;;;18.60;;
2610;SDS011;5612;51.134;17.058;2022-11-04T02:05:19;22.77;;;17.00;;
2610;SDS011;5612;51.134;17.058;2022-11-04T02:07:48;22.10;;;18.60;;
2610;SDS011;5612;51.134;17.058;2022-11-04T02:10:19;17.97;;;16.17;;
2610;SDS011;5612;51.134;17.058;2022-11-04T02:12:51;21.20;;;16.23;;
2610;SDS011;5612;51.134;17.058;2022-11-04T02:15:21;21.37;;;16.37;;
2610;SDS011;5612;51.134;17.058;2022-11-04T02:18:03;25.27;;;18.37;;
2610;SDS011;5612;51.134;17.058;2022-11-04T02:20:43;21.40;;;17.63;;
2610;SDS011;5612;51.134;17.058;2022-11-04T02:26:45;19.90;;;15.93;;
2610;SDS011;5612;51.134;17.058;2022-11-04T02:32:45;18.17;;;16.37;;
2610;SDS011;5612;51.134;17.058;2022-11-04T02:35:28;17.93;;;16.03;;
2610;SDS011;5612;51.134;17.058;2022-11-04T02:38:09;22.90;;;17.70;;
2610;SDS011;5612;51.134;17.058;2022-11-04T02:40:43;18.30;;;16.30;;
2610;SDS011;5612;51.134;17.058;2022-11-04T02:43:21;20.23;;;17.70;;
2610;SDS011;5612;51.134;17.058;2022-11-04T02:45:55;21.03;;;18.83;;
2610;SDS011;5612;51.134;17.058;2022-11-04T02:48:32;19.77;;;17.63;;
2610;SDS011;5612;51.134;17.058;2022-11-04T02:51:06;19.13;;;17.17;;
2610;SDS011;5612;51.134;17.058;2022-11-04T02:53:40;20.27;;;18.17;;
2610;SDS011;5612;51.134;17.058;2022-11-04T02:56:12;19.50;;;17.60;;
2610;SDS011;5612;51.134;17.058;2022-11-04T02:58:44;20.43;;;17.10;;
2610;SDS011;5612;51.134;17.058;2022-11-04T03:01:18;19.67;;;17.00;;
2610;SDS011;5612;51.134;17.058;2022-11-04T03:03:50;20.37;;;16.93;;
2610;SDS011;5612;51.134;17.058;2022-11-04T03:06:23;24.00;;;17.90;;
2610;SDS011;5612;51.134;17.058;2022-11-04T03:08:54;19.60;;;17.57;;
2610;SDS011;5612;51.134;17.058;2022-11-04T03:11:24;23.23;;;18.80;;
2610;SDS011;5612;51.134;17.058;2022-11-04T03:13:56;19.63;;;16.30;;
2610;SDS011;5612;51.134;17.058;2022-11-04T03:16:31;19.00;;;17.13;;
2610;SDS011;5612;51.134;17.058;2022-11-04T03:19:06;20.90;;;17.50;;
2610;SDS011;5612;51.134;17.058;2022-11-04T03:21:41;20.77;;;18.07;;
2610;SDS011;5612;51.134;17.058;2022-11-04T03:24:17;20.73;;;17.80;;
2610;SDS011;5612;51.134;17.058;2022-11-04T03:26:47;17.03;;;15.30;;
2610;SDS011;5612;51.134;17.058;2022-11-04T03:29:22;19.93;;;16.83;;
2610;SDS011;5612;51.134;17.058;2022-11-04T03:32:02;18.53;;;16.60;;
2610;SDS011;5612;51.134;17.058;2022-11-04T03:34:39;19.90;;;16.53;;
2610;SDS011;5612;51.134;17.058;2022-11-04T03:37:08;21.80;;;19.50;;
2610;SDS011;5612;51.134;17.058;2022-11-04T03:39:37;23.93;;;17.43;;
2610;SDS011;5612;51.134;17.058;2022-11-04T03:42:07;20.57;;;16.37;;
2610;SDS011;5612;51.134;17.058;2022-11-04T03:44:47;17.23;;;15.40;;
2610;SDS011;5612;51.134;17.058;2022-11-04T03:47:19;18.97;;;17.00;;
2610;SDS011;5612;51.134;17.058;2022-11-04T03:49:50;21.50;;;17.63;;
2610;SDS011;5612;51.134;17.058;2022-11-04T03:52:22;18.00;;;16.40;;
2610;SDS011;5612;51.134;17.058;2022-11-04T03:54:51;19.73;;;17.70;;
2610;SDS011;5612;51.134;17.058;2022-11-04T03:57:32;19.10;;;17.10;;
2610;SDS011;5612;51.134;17.058;2022-11-04T04:00:07;21.07;;;17.00;;
2610;SDS011;5612;51.134;17.058;2022-11-04T04:02:47;20.97;;;17.20;;
2610;SDS011;5612;51.134;17.058;2022-11-04T04:05:24;22.27;;;19.03;;
2610;SDS011;5612;51.134;17.058;2022-11-04T04:08:00;19.20;;;17.23;;
2610;SDS011;5612;51.134;17.058;2022-11-04T04:10:39;19.70;;;17.13;;
2610;SDS011;5612;51.134;17.058;2022-11-04T04:13:20;20.23;;;17.73;;
2610;SDS011;5612;51.134;17.058;2022-11-04T04:15:56;17.53;;;15.87;;
2610;SDS011;5612;51.134;17.058;2022-11-04T04:18:32;16.60;;;14.67;;
2610;SDS011;5612;51.134;17.058;2022-11-04T04:21:07;21.00;;;17.10;;
2610;SDS011;5612;51.134;17.058;2022-11-04T04:23:40;18.50;;;16.63;;
2610;SDS011;5612;51.134;17.058;2022-11-04T04:26:30;22.73;;;19.00;;
2610;SDS011;5612;51.134;17.058;2022-11-04T04:29:24;21.57;;;19.27;;
2610;SDS011;5612;51.134;17.058;2022-11-04T04:31:55;23.03;;;20.37;;
2610;SDS011;5612;51.134;17.058;2022-11-04T04:34:28;26.00;;;21.53;;
2610;SDS011;5612;51.134;17.058;2022-11-04T04:37:00;29.23;;;23.10;;
2610;SDS011;5612;51.134;17.058;2022-11-04T04:39:34;27.50;;;23.43;;
2610;SDS011;5612;51.134;17.058;2022-11-04T04:42:24;25.40;;;21.00;;
2610;SDS011;5612;51.134;17.058;2022-11-04T04:45:18;31.23;;;22.03;;
2610;SDS011;5612;51.134;17.058;2022-11-04T04:47:49;27.73;;;22.47;;
2610;SDS011;5612;51.134;17.058;2022-11-04T04:50:19;22.77;;;20.27;;
2610;SDS011;5612;51.134;17.058;2022-11-04T04:52:49;26.10;;;22.80;;
2610;SDS011;5612;51.134;17.058;2022-11-04T04:55:20;26.67;;;22.10;;
2610;SDS011;5612;51.134;17.058;2022-11-04T04:57:49;25.33;;;22.53;;
2610;SDS011;5612;51.134;17.058;2022-11-04T05:00:18;24.07;;;21.50;;
2610;SDS011;5612;51.134;17.058;2022-11-04T05:02:47;25.93;;;20.27;;
2610;SDS011;5612;51.134;17.058;2022-11-04T05:05:17;27.47;;;22.13;;
2610;SDS011;5612;51.134;17.058;2022-11-04T05:07:47;30.30;;;21.87;;
2610;SDS011;5612;51.134;17.058;2022-11-04T05:10:16;23.00;;;20.23;;
2610;SDS011;5612;51.134;17.058;2022-11-04T05:12:45;25.77;;;21.50;;
2610;SDS011;5612;51.134;17.058;2022-11-04T05:15:31;26.40;;;23.00;;
2610;SDS011;5612;51.134;17.058;2022-11-04T05:18:01;26.83;;;22.60;;
2610;SDS011;5612;51.134;17.058;2022-11-04T05:20:30;27.57;;;22.33;;
2610;SDS011;5612;51.134;17.058;2022-11-04T05:23:01;32.00;;;23.10;;
2610;SDS011;5612;51.134;17.058;2022-11-04T05:25:29;27.63;;;22.83;;
2610;SDS011;5612;51.134;17.058;2022-11-04T05:27:59;28.30;;;23.90;;
2610;SDS011;5612;51.134;17.058;2022-11-04T05:30:28;29.57;;;24.63;;
2610;SDS011;5612;51.134;17.058;2022-11-04T05:32:57;30.13;;;25.93;;
2610;SDS011;5612;51.134;17.058;2022-11-04T05:35:31;30.07;;;23.17;;
2610;SDS011;5612;51.134;17.058;2022-11-04T05:38:01;28.90;;;22.40;;
2610;SDS011;5612;51.134;17.058;2022-11-04T05:40:30;27.90;;;22.00;;
2610;SDS011;5612;51.134;17.058;2022-11-04T05:42:58;31.33;;;23.50;;
2610;SDS011;5612;51.134;17.058;2022-11-04T05:45:28;29.97;;;22.87;;
2610;SDS011;5612;51.134;17.058;2022-11-04T05:47:57;31.70;;;23.40;;
2610;SDS011;5612;51.134;17.058;2022-11-04T05:50:26;30.27;;;24.60;;
2610;SDS011;5612;51.134;17.058;2022-11-04T05:52:56;34.83;;;24.57;;
2610;SDS011;5612;51.134;17.058;2022-11-04T05:55:26;31.53;;;23.60;;
2610;SDS011;5612;51.134;17.058;2022-11-04T05:57:55;32.27;;;24.77;;
2610;SDS011;5612;51.134;17.058;2022-11-04T06:00:25;32.27;;;26.03;;
2610;SDS011;5612;51.134;17.058;2022-11-04T06:02:54;32.70;;;25.63;;
2610;SDS011;5612;51.134;17.058;2022-11-04T06:05:24;31.40;;;26.00;;
2610;SDS011;5612;51.134;17.058;2022-11-04T06:07:53;31.00;;;25.97;;
2610;SDS011;5612;51.134;17.058;2022-11-04T06:10:23;33.70;;;26.90;;
2610;SDS011;5612;51.134;17.058;2022-11-04T06:12:53;38.77;;;27.20;;
2610;SDS011;5612;51.134;17.058;2022-11-04T06:15:22;34.33;;;26.57;;
2610;SDS011;5612;51.134;17.058;2022-11-04T06:17:51;30.63;;;25.70;;
2610;SDS011;5612;51.134;17.058;2022-11-04T06:20:19;34.67;;;26.50;;
2610;SDS011;5612;51.134;17.058;2022-11-04T06:22:48;34.23;;;26.30;;
2610;SDS011;5612;51.134;17.058;2022-11-04T06:25:17;34.77;;;27.90;;
2610;SDS011;5612;51.134;17.058;2022-11-04T06:27:45;28.23;;;24.17;;
2610;SDS011;5612;51.134;17.058;2022-11-04T06:30:16;29.77;;;26.07;;
2610;SDS011;5612;51.134;17.058;2022-11-04T06:32:47;32.00;;;27.90;;
2610;SDS011;5612;51.134;17.058;2022-11-04T06:35:17;35.07;;;28.67;;
2610;SDS011;5612;51.134;17.058;2022-11-04T06:37:46;40.80;;;26.50;;
2610;SDS011;5612;51.134;17.058;2022-11-04T06:40:14;32.00;;;25.47;;
2610;SDS011;5612;51.134;17.058;2022-11-04T06:42:43;33.13;;;28.97;;
2610;SDS011;5612;51.134;17.058;2022-11-04T06:45:12;31.13;;;26.27;;
2610;SDS011;5612;51.134;17.058;2022-11-04T06:47:43;31.53;;;28.03;;
2610;SDS011;5612;51.134;17.058;2022-11-04T06:50:13;34.07;;;27.00;;
2610;SDS011;5612;51.134;17.058;2022-11-04T06:52:41;32.27;;;28.67;;
2610;SDS011;5612;51.134;17.058;2022-11-04T06:55:10;30.20;;;25.97;;
2610;SDS011;5612;51.134;17.058;2022-11-04T06:57:39;32.70;;;27.50;;
2610;SDS011;5612;51.134;17.058;2022-11-04T07:00:09;32.10;;;25.90;;
2610;SDS011;5612;51.134;17.058;2022-11-04T07:02:39;28.57;;;25.50;;
2610;SDS011;5612;51.134;17.058;2022-11-04T07:05:09;29.70;;;26.50;;
2610;SDS011;5612;51.134;17.058;2022-11-04T07:07:38;35.03;;;28.53;;
2610;SDS011;5612;51.134;17.058;2022-11-04T07:10:07;31.80;;;28.50;;
2610;SDS011;5612;51.134;17.058;2022-11-04T07:12:37;31.97;;;27.90;;
2610;SDS011;5612;51.134;17.058;2022-11-04T07:15:06;29.30;;;26.07;;
2610;SDS011;5612;51.134;17.058;2022-11-04T07:17:36;29.53;;;26.57;;
2610;SDS011;5612;51.134;17.058;2022-11-04T07:20:05;27.57;;;24.77;;
2610;SDS011;5612;51.134;17.058;2022-11-04T07:22:35;27.33;;;24.60;;
2610;SDS011;5612;51.134;17.058;2022-11-04T07:25:04;26.63;;;23.80;;
2610;SDS011;5612;51.134;17.058;2022-11-04T07:27:33;26.47;;;23.67;;
2610;SDS011;5612;51.134;17.058;2022-11-04T07:30:02;24.83;;;22.13;;
2610;SDS011;5612;51.134;17.058;2022-11-04T07:32:32;24.33;;;21.17;;
2610;SDS011;5612;51.134;17.058;2022-11-04T07:35:01;24.73;;;21.93;;
2610;SDS011;5612;51.134;17.058;2022-11-04T07:37:29;26.27;;;23.33;;
2610;SDS011;5612;51.134;17.058;2022-11-04T07:40:00;22.77;;;20.33;;
2610;SDS011;5612;51.134;17.058;2022-11-04T07:42:29;25.27;;;22.57;;
2610;SDS011;5612;51.134;17.058;2022-11-04T07:44:57;25.63;;;22.37;;
2610;SDS011;5612;51.134;17.058;2022-11-04T07:47:28;27.00;;;21.47;;
2610;SDS011;5612;51.134;17.058;2022-11-04T07:49:56;23.20;;;20.87;;
2610;SDS011;5612;51.134;17.058;2022-11-04T07:52:25;25.63;;;21.97;;
2610;SDS011;5612;51.134;17.058;2022-11-04T07:54:54;26.83;;;22.07;;
2610;SDS011;5612;51.134;17.058;2022-11-04T07:57:24;25.87;;;23.03;;
2610;SDS011;5612;51.134;17.058;2022-11-04T07:59:53;23.87;;;21.47;;
2610;SDS011;5612;51.134;17.058;2022-11-04T08:02:22;23.60;;;21.27;;
2610;SDS011;5612;51.134;17.058;2022-11-04T08:04:57;24.37;;;21.80;;
2610;SDS011;5612;51.134;17.058;2022-11-04T08:07:26;26.30;;;21.87;;
2610;SDS011;5612;51.134;17.058;2022-11-04T08:09:55;24.20;;;21.27;;
2610;SDS011;5612;51.134;17.058;2022-11-04T08:12:25;21.90;;;19.73;;
2610;SDS011;5612;51.134;17.058;2022-11-04T08:14:58;23.07;;;20.70;;
2610;SDS011;5612;51.134;17.058;2022-11-04T08:17:28;26.60;;;21.70;;
2610;SDS011;5612;51.134;17.058;2022-11-04T08:19:56;23.73;;;21.30;;
2610;SDS011;5612;51.134;17.058;2022-11-04T08:22:25;24.50;;;21.80;;
2610;SDS011;5612;51.134;17.058;2022-11-04T08:24:58;24.67;;;20.93;;
2610;SDS011;5612;51.134;17.058;2022-11-04T08:27:29;22.90;;;20.60;;
2610;SDS011;5612;51.134;17.058;2022-11-04T08:29:59;22.17;;;19.50;;
2610;SDS011;5612;51.134;17.058;2022-11-04T08:32:29;28.37;;;22.70;;
2610;SDS011;5612;51.134;17.058;2022-11-04T08:34:58;25.97;;;23.30;;
2610;SDS011;5612;51.134;17.058;2022-11-04T08:37:27;24.73;;;21.53;;
2610;SDS011;5612;51.134;17.058;2022-11-04T08:39:56;22.63;;;19.93;;
2610;SDS011;5612;51.134;17.058;2022-11-04T08:42:25;23.43;;;21.03;;
2610;SDS011;5612;51.134;17.058;2022-11-04T08:44:55;28.90;;;22.07;;
2610;SDS011;5612;51.134;17.058;2022-11-04T08:47:24;21.70;;;19.40;;
2610;SDS011;5612;51.134;17.058;2022-11-04T08:49:53;24.23;;;21.80;;
2610;SDS011;5612;51.134;17.058;2022-11-04T08:52:22;23.53;;;21.00;;
2610;SDS011;5612;51.134;17.058;2022-11-04T08:54:52;23.83;;;21.27;;
2610;SDS011;5612;51.134;17.058;2022-11-04T08:57:23;21.60;;;19.37;;
2610;SDS011;5612;51.134;17.058;2022-11-04T08:59:54;21.43;;;19.43;;
2610;SDS011;5612;51.134;17.058;2022-11-04T09:02:24;20.10;;;18.10;;
2610;SDS011;5612;51.134;17.058;2022-11-04T09:04:54;20.13;;;18.23;;
2610;SDS011;5612;51.134;17.058;2022-11-04T09:07:23;21.03;;;19.13;;
2610;SDS011;5612;51.134;17.058;2022-11-04T09:09:52;22.13;;;19.77;;
2610;SDS011;5612;51.134;17.058;2022-11-04T09:12:21;23.77;;;21.30;;
2610;SDS011;5612;51.134;17.058;2022-11-04T09:14:51;23.03;;;20.53;;
2610;SDS011;5612;51.134;17.058;2022-11-04T09:17:23;21.60;;;19.40;;
2610;SDS011;5612;51.134;17.058;2022-11-04T09:19:56;22.23;;;20.03;;
2610;SDS011;5612;51.134;17.058;2022-11-04T09:22:25;22.50;;;20.30;;
2610;SDS011;5612;51.134;17.058;2022-11-04T09:24:54;22.50;;;20.10;;
2610;SDS011;5612;51.134;17.058;2022-11-04T09:27:23;20.10;;;18.00;;
2610;SDS011;5612;51.134;17.058;2022-11-04T09:29:51;20.20;;;18.17;;
2610;SDS011;5612;51.134;17.058;2022-11-04T09:32:20;20.57;;;17.67;;
2610;SDS011;5612;51.134;17.058;2022-11-04T09:34:50;20.50;;;18.50;;
2610;SDS011;5612;51.134;17.058;2022-11-04T09:37:19;19.90;;;17.67;;
2610;SDS011;5612;51.134;17.058;2022-11-04T09:39:51;19.17;;;17.20;;
2610;SDS011;5612;51.134;17.058;2022-11-04T09:45:21;19.00;;;17.20;;
2610;SDS011;5612;51.134;17.058;2022-11-04T09:47:55;19.53;;;17.27;;
2610;SDS011;5612;51.134;17.058;2022-11-04T09:50:34;19.60;;;17.67;;
2610;SDS011;5612;51.134;17.058;2022-11-04T09:53:14;19.87;;;17.83;;
2610;SDS011;5612;51.134;17.058;2022-11-04T09:55:48;20.10;;;18.10;;
2610;SDS011;5612;51.134;17.058;2022-11-04T09:58:21;20.27;;;18.07;;
2610;SDS011;5612;51.134;17.058;2022-11-04T10:00:52;17.97;;;16.23;;
2610;SDS011;5612;51.134;17.058;2022-11-04T10:03:30;20.80;;;18.60;;
2610;SDS011;5612;51.134;17.058;2022-11-04T10:06:14;19.97;;;17.97;;
2610;SDS011;5612;51.134;17.058;2022-11-04T10:09:05;19.73;;;17.70;;
2610;SDS011;5612;51.134;17.058;2022-11-04T10:11:49;19.33;;;16.80;;
2610;SDS011;5612;51.134;17.058;2022-11-04T10:17:23;19.73;;;17.60;;
2610;SDS011;5612;51.134;17.058;2022-11-04T10:20:13;20.43;;;18.33;;
2610;SDS011;5612;51.134;17.058;2022-11-04T10:22:57;20.30;;;17.97;;
2610;SDS011;5612;51.134;17.058;2022-11-04T10:25:29;20.90;;;18.80;;
2610;SDS011;5612;51.134;17.058;2022-11-04T10:28:07;22.00;;;19.73;;
2610;SDS011;5612;51.134;17.058;2022-11-04T10:30:41;21.53;;;19.37;;
2610;SDS011;5612;51.134;17.058;2022-11-04T10:33:13;22.57;;;20.13;;
2610;SDS011;5612;51.134;17.058;2022-11-04T10:35:48;23.60;;;18.93;;
2610;SDS011;5612;51.134;17.058;2022-11-04T10:38:25;22.27;;;19.97;;
2610;SDS011;5612;51.134;17.058;2022-11-04T10:41:00;24.50;;;20.07;;
2610;SDS011;5612;51.134;17.058;2022-11-04T10:43:33;22.00;;;19.00;;
2610;SDS011;5612;51.134;17.058;2022-11-04T10:46:11;21.37;;;19.17;;
2610;SDS011;5612;51.134;17.058;2022-11-04T10:49:04;22.80;;;19.37;;
2610;SDS011;5612;51.134;17.058;2022-11-04T10:51:53;23.80;;;21.30;;
2610;SDS011;5612;51.134;17.058;2022-11-04T10:54:25;22.80;;;20.30;;
2610;SDS011;5612;51.134;17.058;2022-11-04T10:56:54;23.73;;;21.17;;
2610;SDS011;5612;51.134;17.058;2022-11-04T10:59:25;21.77;;;19.57;;
2610;SDS011;5612;51.134;17.058;2022-11-04T11:01:56;25.73;;;21.43;;
2610;SDS011;5612;51.134;17.058;2022-11-04T11:04:28;20.90;;;17.57;;
2610;SDS011;5612;51.134;17.058;2022-11-04T11:06:59;22.50;;;20.20;;
2610;SDS011;5612;51.134;17.058;2022-11-04T11:09:34;21.50;;;19.40;;
2610;SDS011;5612;51.134;17.058;2022-11-04T11:12:16;21.50;;;19.30;;
2610;SDS011;5612;51.134;17.058;2022-11-04T11:15:18;21.03;;;18.87;;
2610;SDS011;5612;51.134;17.058;2022-11-04T11:20:47;20.40;;;17.20;;
2610;SDS011;5612;51.134;17.058;2022-11-04T11:23:34;20.50;;;18.40;;
2610;SDS011;5612;51.134;17.058;2022-11-04T11:26:11;23.00;;;17.17;;
2610;SDS011;5612;51.134;17.058;2022-11-04T11:28:46;19.73;;;17.70;;
2610;SDS011;5612;51.134;17.058;2022-11-04T11:31:24;18.23;;;16.40;;
2610;SDS011;5612;51.134;17.058;2022-11-04T11:33:53;20.77;;;18.67;;
2610;SDS011;5612;51.134;17.058;2022-11-04T11:36:24;20.80;;;16.43;;
2610;SDS011;5612;51.134;17.058;2022-11-04T11:38:58;17.23;;;15.53;;
2610;SDS011;5612;51.134;17.058;2022-11-04T11:41:33;19.07;;;17.20;;
2610;SDS011;5612;51.134;17.058;2022-11-04T11:44:20;19.43;;;17.53;;
2610;SDS011;5612;51.134;17.058;2022-11-04T11:46:54;18.50;;;16.50;;
2610;SDS011;5612;51.134;17.058;2022-11-04T11:49:28;17.10;;;15.50;;
2610;SDS011;5612;51.134;17.058;2022-11-04T11:55:04;16.80;;;15.30;;
2610;SDS011;5612;51.134;17.058;2022-11-04T11:57:41;17.90;;;16.03;;
2610;SDS011;5612;51.134;17.058;2022-11-04T12:00:38;18.90;;;17.10;;
2610;SDS011;5612;51.134;17.058;2022-11-04T12:03:18;17.63;;;15.93;;
2610;SDS011;5612;51.134;17.058;2022-11-04T12:06:22;17.90;;;15.27;;
2610;SDS011;5612;51.134;17.058;2022-11-04T12:09:22;17.77;;;16.07;;
2610;SDS011;5612;51.134;17.058;2022-11-04T12:12:14;17.53;;;16.00;;
2610;SDS011;5612;51.134;17.058;2022-11-04T12:15:12;18.00;;;16.10;;
2610;SDS011;5612;51.134;17.058;2022-11-04T12:17:55;18.90;;;17.00;;
2610;SDS011;5612;51.134;17.058;2022-11-04T12:20:45;19.03;;;17.20;;
2610;SDS011;5612;51.134;17.058;2022-11-04T12:23:20;19.20;;;17.33;;
2610;SDS011;5612;51.134;17.058;2022-11-04T12:25:59;24.30;;;18.73;;
2610;SDS011;5612;51.134;17.058;2022-11-04T12:28:42;20.03;;;17.83;;
2610;SDS011;5612;51.134;17.058;2022-11-04T12:31:31;20.00;;;17.57;;
2610;SDS011;5612;51.134;17.058;2022-11-04T12:34:11;19.57;;;17.57;;
2610;SDS011;5612;51.134;17.058;2022-11-04T12:36:58;18.70;;;16.70;;
2610;SDS011;5612;51.134;17.058;2022-11-04T12:39:43;20.93;;;18.07;;
2610;SDS011;5612;51.134;17.058;2022-11-04T12:42:24;19.13;;;17.33;;
2610;SDS011;5612;51.134;17.058;2022-11-04T12:45:02;18.23;;;16.33;;
2610;SDS011;5612;51.134;17.058;2022-11-04T12:47:42;20.50;;;15.77;;
2610;SDS011;5612;51.134;17.058;2022-11-04T12:50:28;19.10;;;17.10;;
2610;SDS011;5612;51.134;17.058;2022-11-04T12:53:14;19.40;;;17.40;;
2610;SDS011;5612;51.134;17.058;2022-11-04T12:55:59;17.20;;;15.40;;
2610;SDS011;5612;51.134;17.058;2022-11-04T12:58:36;20.13;;;17.80;;
2610;SDS011;5612;51.134;17.058;2022-11-04T13:01:24;19.63;;;17.73;;
2610;SDS011;5612;51.134;17.058;2022-11-04T13:04:02;20.60;;;18.60;;
2610;SDS011;5612;51.134;17.058;2022-11-04T13:06:35;18.87;;;16.87;;
2610;SDS011;5612;51.134;17.058;2022-11-04T13:09:09;18.67;;;16.77;;
2610;SDS011;5612;51.134;17.058;2022-11-04T13:11:44;20.67;;;18.13;;
2610;SDS011;5612;51.134;17.058;2022-11-04T13:14:19;21.70;;;18.40;;
2610;SDS011;5612;51.134;17.058;2022-11-04T13:16:56;21.90;;;18.77;;
2610;SDS011;5612;51.134;17.058;2022-11-04T13:19:32;22.43;;;20.23;;
2610;SDS011;5612;51.134;17.058;2022-11-04T13:22:12;22.63;;;20.10;;
2610;SDS011;5612;51.134;17.058;2022-11-04T13:24:48;19.53;;;17.50;;
2610;SDS011;5612;51.134;17.058;2022-11-04T13:27:20;24.37;;;20.60;;
2610;SDS011;5612;51.134;17.058;2022-11-04T13:29:55;20.90;;;18.63;;
2610;SDS011;5612;51.134;17.058;2022-11-04T13:32:37;21.93;;;19.20;;
2610;SDS011;5612;51.134;17.058;2022-11-04T13:35:20;19.53;;;17.47;;
2610;SDS011;5612;51.134;17.058;2022-11-04T13:37:58;21.90;;;18.90;;
2610;SDS011;5612;51.134;17.058;2022-11-04T13:40:32;20.23;;;18.00;;
2610;SDS011;5612;51.134;17.058;2022-11-04T13:43:13;20.57;;;18.67;;
2610;SDS011;5612;51.134;17.058;2022-11-04T13:46:20;19.73;;;17.77;;
2610;SDS011;5612;51.134;17.058;2022-11-04T13:48:57;21.00;;;18.90;;
2610;SDS011;5612;51.134;17.058;2022-11-04T13:51:35;21.30;;;19.10;;
2610;SDS011;5612;51.134;17.058;2022-11-04T13:54:13;21.77;;;19.53;;
2610;SDS011;5612;51.134;17.058;2022-11-04T13:57:05;21.60;;;19.10;;
2610;SDS011;5612;51.134;17.058;2022-11-04T13:59:40;19.87;;;17.30;;
2610;SDS011;5612;51.134;17.058;2022-11-04T14:02:23;20.90;;;18.80;;
2610;SDS011;5612;51.134;17.058;2022-11-04T14:08:15;20.90;;;18.60;;
2610;SDS011;5612;51.134;17.058;2022-11-04T14:10:56;21.60;;;18.10;;
2610;SDS011;5612;51.134;17.058;2022-11-04T14:16:46;22.00;;;19.80;;
2610;SDS011;5612;51.134;17.058;2022-11-04T14:22:29;22.37;;;18.33;;
2610;SDS011;5612;51.134;17.058;2022-11-04T14:25:03;22.33;;;20.13;;
2610;SDS011;5612;51.134;17.058;2022-11-04T14:27:47;21.90;;;19.50;;
2610;SDS011;5612;51.134;17.058;2022-11-04T14:30:26;21.43;;;19.30;;
2610;SDS011;5612;51.134;17.058;2022-11-04T14:32:58;24.43;;;20.67;;
2610;SDS011;5612;51.134;17.058;2022-11-04T14:35:28;22.90;;;20.73;;
2610;SDS011;5612;51.134;17.058;2022-11-04T14:38:00;23.47;;;21.03;;
2610;SDS011;5612;51.134;17.058;2022-11-04T14:40:50;22.23;;;19.93;;
2610;SDS011;5612;51.134;17.058;2022-11-04T14:43:39;28.07;;;25.10;;
2610;SDS011;5612;51.134;17.058;2022-11-04T14:46:10;26.73;;;22.40;;
2610;SDS011;5612;51.134;17.058;2022-11-04T14:48:45;23.40;;;21.10;;
2610;SDS011;5612;51.134;17.058;2022-11-04T14:51:19;24.23;;;21.73;;
2610;SDS011;5612;51.134;17.058;2022-11-04T14:53:51;26.73;;;23.57;;
2610;SDS011;5612;51.134;17.058;2022-11-04T14:56:25;28.50;;;25.67;;
2610;SDS011;5612;51.134;17.058;2022-11-04T14:58:54;26.73;;;24.03;;
2610;SDS011;5612;51.134;17.058;2022-11-04T15:01:24;29.37;;;26.40;;
2610;SDS011;5612;51.134;17.058;2022-11-04T15:04:04;30.70;;;27.17;;
2610;SDS011;5612;51.134;17.058;2022-11-04T15:06:38;25.50;;;22.90;;
2610;SDS011;5612;51.134;17.058;2022-11-04T15:09:21;29.33;;;23.53;;
2610;SDS011;5612;51.134;17.058;2022-11-04T15:11:57;30.43;;;23.47;;
2610;SDS011;5612;51.134;17.058;2022-11-04T15:14:54;28.33;;;23.40;;
2610;SDS011;5612;51.134;17.058;2022-11-04T15:17:25;28.50;;;24.77;;
2610;SDS011;5612;51.134;17.058;2022-11-04T15:19:58;25.17;;;22.57;;
2610;SDS011;5612;51.134;17.058;2022-11-04T15:22:30;24.80;;;22.20;;
2610;SDS011;5612;51.134;17.058;2022-11-04T15:24:59;26.80;;;24.00;;
2610;SDS011;5612;51.134;17.058;2022-11-04T15:27:32;28.07;;;25.27;;
2610;SDS011;5612;51.134;17.058;2022-11-04T15:30:03;24.83;;;21.90;;
2610;SDS011;5612;51.134;17.058;2022-11-04T15:32:52;24.60;;;21.83;;
2610;SDS011;5612;51.134;17.058;2022-11-04T15:35:22;24.37;;;21.13;;
2610;SDS011;5612;51.134;17.058;2022-11-04T15:37:52;25.23;;;22.53;;
2610;SDS011;5612;51.134;17.058;2022-11-04T15:40:23;25.70;;;22.50;;
2610;SDS011;5612;51.134;17.058;2022-11-04T15:42:55;22.50;;;20.40;;
2610;SDS011;5612;51.134;17.058;2022-11-04T15:45:26;24.87;;;22.33;;